Weather reports worldwide

Advertisment
Sheffield, United Kingdom (99107): temperature & dewpoint: 19.05.2018 04:00:00 - 25.05.2018 04:00:00 (BST)Sheffield, United Kingdom (99107): sunshine duration: 19.05.2018 04:00:00 - 25.05.2018 04:00:00 (BST)Sheffield, United Kingdom (99107): precipitation: 19.05.2018 04:00:00 - 25.05.2018 04:00:00 (BST)
Date & Time tt [°C] td [°C] sd [min] rr [mm]
25.05.2018 04:00:00 10,5 8,5 0 -
25.05.2018 03:00:00 10,6 8,6 0 0,2
25.05.2018 02:00:00 10,9 8,7 0 0,0
25.05.2018 01:00:00 11,1 9,3 - 0,8
25.05.2018 00:00:00 12,1 9,0 0 0,0
24.05.2018 23:00:00 13,5 8,7 0 0,0
24.05.2018 22:00:00 14,7 7,9 0 0,0
24.05.2018 21:00:00 15,9 7,8 36 0,0
24.05.2018 20:00:00 17,4 7,7 60 0,0
24.05.2018 19:00:00 18,9 9,2 60 0,0
24.05.2018 18:00:00 20,0 8,8 60 0,0
24.05.2018 17:00:00 20,0 10,6 60 0,0
24.05.2018 16:00:00 20,4 12,0 60 0,0
24.05.2018 15:00:00 19,1 11,0 60 0,0
24.05.2018 14:00:00 17,9 11,3 48 0,0
24.05.2018 13:00:00 14,9 10,2 30 0,0
24.05.2018 12:00:00 12,4 9,1 0 0,0
24.05.2018 11:00:00 10,6 8,4 0 0,0
24.05.2018 10:00:00 9,7 7,9 0 0,0
24.05.2018 09:00:00 9,0 7,2 0 0,0
24.05.2018 08:00:00 8,7 7,2 0 0,0
24.05.2018 07:00:00 8,1 6,8 0 0,0
24.05.2018 06:00:00 7,8 6,7 0 0,0
24.05.2018 05:00:00 7,8 6,7 0 0,0
24.05.2018 04:00:00 8,0 6,8 0 0,0
24.05.2018 03:00:00 8,0 6,7 0 0,0
24.05.2018 02:00:00 8,3 6,9 0 0,0
24.05.2018 01:00:00 8,7 7,4 - 0,0
24.05.2018 00:00:00 9,0 7,3 0 0,0
23.05.2018 23:00:00 9,7 7,2 0 0,0
23.05.2018 22:00:00 11,2 7,3 0 0,0
23.05.2018 21:00:00 12,9 7,4 36 0,0
23.05.2018 20:00:00 14,6 8,6 60 0,0
23.05.2018 19:00:00 16,6 8,6 60 0,0
23.05.2018 18:00:00 17,7 9,1 60 0,0
23.05.2018 17:00:00 18,1 9,7 60 0,0
23.05.2018 16:00:00 17,7 9,4 60 0,0
23.05.2018 15:00:00 16,8 9,5 60 0,0
23.05.2018 14:00:00 16,0 9,3 54 0,0
23.05.2018 13:00:00 13,8 8,5 24 0,0
23.05.2018 12:00:00 12,8 8,3 6 0,0
23.05.2018 11:00:00 11,0 7,4 0 0,0
23.05.2018 10:00:00 10,3 7,3 0 0,0
23.05.2018 09:00:00 9,9 7,0 0 0,0
23.05.2018 08:00:00 9,7 7,1 0 0,0
23.05.2018 07:00:00 9,5 7,2 0 0,0
23.05.2018 06:00:00 9,4 7,1 0 0,0
23.05.2018 05:00:00 9,2 7,0 0 0,0
23.05.2018 04:00:00 9,4 7,0 0 0,0
23.05.2018 03:00:00 9,4 7,0 0 0,0
23.05.2018 02:00:00 9,5 7,1 0 0,0
23.05.2018 01:00:00 9,7 7,1 - 0,0
23.05.2018 00:00:00 9,8 7,1 0 0,0
22.05.2018 23:00:00 9,8 7,0 0 0,0
22.05.2018 22:00:00 10,3 7,2 0 0,0
22.05.2018 21:00:00 11,6 7,3 36 0,0
22.05.2018 20:00:00 13,5 8,1 60 0,0
22.05.2018 19:00:00 15,1 8,5 60 0,0
22.05.2018 18:00:00 15,7 8,7 60 0,0
22.05.2018 17:00:00 16,3 8,9 60 0,0
22.05.2018 16:00:00 17,1 9,5 60 0,0
22.05.2018 15:00:00 17,0 10,0 60 0,0
22.05.2018 14:00:00 17,1 10,2 60 0,0
22.05.2018 13:00:00 15,9 10,2 54 0,0
22.05.2018 12:00:00 14,8 9,9 54 0,0
22.05.2018 11:00:00 12,3 8,0 6 0,0
22.05.2018 10:00:00 10,9 7,9 0 0,0
22.05.2018 09:00:00 10,5 7,8 0 0,0
22.05.2018 08:00:00 9,8 7,6 0 0,0
22.05.2018 07:00:00 9,7 7,8 0 0,0
22.05.2018 06:00:00 10,4 8,6 0 0,0
22.05.2018 05:00:00 10,3 7,4 0 0,0
22.05.2018 04:00:00 11,4 7,3 0 0,0
22.05.2018 03:00:00 11,9 7,4 0 0,0
22.05.2018 02:00:00 11,9 7,5 0 0,0
22.05.2018 01:00:00 12,6 9,1 - 0,0
22.05.2018 00:00:00 13,2 9,1 0 0,0
21.05.2018 23:00:00 14,4 8,8 0 0,0
21.05.2018 22:00:00 16,1 9,0 0 0,0
21.05.2018 21:00:00 18,1 9,2 24 0,0
21.05.2018 20:00:00 19,6 9,4 60 0,0
21.05.2018 19:00:00 21,3 7,7 60 0,0
21.05.2018 18:00:00 21,9 5,4 60 0,0
21.05.2018 17:00:00 22,1 9,1 60 0,0
21.05.2018 16:00:00 21,9 9,6 60 0,0
21.05.2018 15:00:00 21,1 10,2 60 0,0
21.05.2018 14:00:00 20,7 10,5 60 0,0
21.05.2018 13:00:00 20,3 9,9 60 0,0
21.05.2018 12:00:00 18,6 10,6 60 0,0
21.05.2018 11:00:00 16,8 10,4 60 0,0
21.05.2018 10:00:00 14,8 10,6 60 0,0
21.05.2018 09:00:00 13,9 10,5 60 0,0
21.05.2018 08:00:00 12,5 10,1 60 0,0
21.05.2018 07:00:00 11,4 10,6 60 0,0
21.05.2018 06:00:00 9,1 8,5 24 0,0
21.05.2018 05:00:00 9,5 8,8 0 0,0
21.05.2018 04:00:00 9,9 8,8 0 0,0
21.05.2018 03:00:00 10,7 9,2 0 0,0
21.05.2018 02:00:00 11,7 9,7 0 0,0
21.05.2018 01:00:00 12,6 9,9 - 0,0
21.05.2018 00:00:00 13,9 10,0 0 0,0
20.05.2018 23:00:00 15,1 10,6 0 0,0
20.05.2018 22:00:00 16,8 10,4 0 0,0
20.05.2018 21:00:00 18,6 8,6 0 0,0
20.05.2018 20:00:00 20,0 8,3 0 0,0
20.05.2018 19:00:00 21,7 8,0 60 0,0
20.05.2018 18:00:00 22,9 8,0 60 0,0
20.05.2018 17:00:00 23,0 8,1 60 0,0
20.05.2018 16:00:00 23,4 6,8 60 0,0
20.05.2018 15:00:00 23,3 8,5 54 0,0
20.05.2018 14:00:00 23,0 9,7 60 0,0
20.05.2018 13:00:00 22,5 8,0 60 0,0
20.05.2018 12:00:00 21,7 9,2 60 0,0
20.05.2018 11:00:00 20,9 8,5 60 0,0
20.05.2018 10:00:00 19,6 8,8 60 0,0
20.05.2018 09:00:00 17,1 7,9 60 0,0
20.05.2018 08:00:00 14,3 7,8 60 0,0
20.05.2018 07:00:00 11,4 7,1 60 0,0
20.05.2018 06:00:00 9,4 5,9 6 0,0
20.05.2018 05:00:00 9,8 5,5 0 0,0
20.05.2018 04:00:00 10,8 5,5 0 0,0
20.05.2018 03:00:00 12,4 5,2 0 0,0
20.05.2018 02:00:00 12,9 5,5 0 0,0
20.05.2018 01:00:00 13,8 6,1 - 0,0
20.05.2018 00:00:00 14,3 6,1 0 0,0
19.05.2018 23:00:00 14,9 6,5 0 0,0
19.05.2018 22:00:00 15,8 7,2 0 0,0
19.05.2018 21:00:00 17,6 7,4 18 0,0
19.05.2018 20:00:00 19,1 6,7 60 0,0
19.05.2018 19:00:00 20,5 6,7 60 0,0
19.05.2018 18:00:00 21,3 7,1 60 0,0
19.05.2018 17:00:00 21,9 7,7 60 0,0
19.05.2018 16:00:00 21,2 7,1 60 0,0
19.05.2018 15:00:00 21,0 7,1 60 0,0
19.05.2018 14:00:00 20,3 7,4 60 0,0
19.05.2018 13:00:00 19,9 6,4 60 0,0
19.05.2018 12:00:00 18,8 7,3 48 0,0
19.05.2018 11:00:00 17,9 8,8 54 0,0
19.05.2018 10:00:00 15,7 8,9 60 0,0
19.05.2018 09:00:00 12,9 7,0 60 0,0
19.05.2018 08:00:00 10,6 7,2 60 0,0
19.05.2018 07:00:00 7,5 6,2 60 0,0
19.05.2018 06:00:00 6,8 6,2 12 0,0
19.05.2018 05:00:00 6,3 5,5 0 0,0
19.05.2018 04:00:00 6,8 5,7 0 0,0

tt = temperature
td = dewpoint
sd = sunshine duration
rr = precipitation

Next stations